Quail, Texas
Current Conditions -  °F | °C
As of 1:53 AM on Wednesday 22 Oct 2014 (Local Time) from KCDS Reporting Station
Clear Clear  
Wind Chill: 15°   Ceiling: Unl
Heat Index: 15°   Visibility: 10mi
Dew Point:   Wind: 7mph
Humidity: 69%   Direction: 140°SE
Pressure: 30.07"   Gusts: NA
Location:  34.91°N, 100.4°W
Report Text: KCDS 220653Z AUTO 14006KT 10SM CLR 15/09 A3007 RMK AO2 SLP163 T01500094
Loading
Personal Weather Stations






























Interactive Weather Map
Tropical Storm Tracking
New forecast layout! Learn more

10-Day Weather Forecast

Advertisements
Track Severe Weather on mobile